createdAt,value
2023-04-09T06:37:00.267Z,8.70
2023-04-09T06:38:00.275Z,11.40
2023-04-09T06:39:00.308Z,12.10
2023-04-09T06:40:01.423Z,10.70
2023-04-09T06:41:00.257Z,10.50
2023-04-09T06:42:00.237Z,8.90
2023-04-09T06:43:00.300Z,9.80
2023-04-09T06:44:00.238Z,8.60
2023-04-09T06:45:00.226Z,10.10
2023-04-09T06:46:00.206Z,9.80
2023-04-09T06:47:00.196Z,9.10
2023-04-09T06:48:00.231Z,11.50
2023-04-09T06:49:00.198Z,9.30
2023-04-09T06:50:00.187Z,9.80
2023-04-09T06:51:00.177Z,8.50
2023-04-09T06:52:00.129Z,10.60
2023-04-09T06:53:00.155Z,10.00
2023-04-09T06:54:00.274Z,10.40
2023-04-09T06:55:00.113Z,10.60
2023-04-09T06:56:00.078Z,10.40
2023-04-09T06:57:00.161Z,9.40
2023-04-09T06:58:00.124Z,8.60
2023-04-09T06:59:00.072Z,9.50
2023-04-09T07:00:00.066Z,9.60
2023-04-09T07:01:00.086Z,9.00
2023-04-09T07:02:00.101Z,9.70
2023-04-09T07:03:00.218Z,8.60
2023-04-09T07:04:00.147Z,8.40
2023-04-09T07:04:59.984Z,9.00
2023-04-09T07:05:59.967Z,9.20
2023-04-09T07:06:59.975Z,9.40
2023-04-09T07:07:59.950Z,9.50
2023-04-09T07:08:59.932Z,9.00
2023-04-09T07:09:59.967Z,7.90
2023-04-09T07:11:00.045Z,8.70
2023-04-09T07:11:59.978Z,8.50
2023-04-09T07:12:59.970Z,8.00
2023-04-09T07:13:59.952Z,9.70
2023-04-09T07:14:59.909Z,7.30
2023-04-09T07:15:59.875Z,7.90
2023-04-09T07:16:59.848Z,9.70
2023-04-09T07:17:59.881Z,9.00
2023-04-09T07:18:59.838Z,9.20
2023-04-09T07:19:59.836Z,9.40
2023-04-09T07:21:00.182Z,8.40
2023-04-09T07:21:59.863Z,8.20
2023-04-09T07:22:59.837Z,8.30
2023-04-09T07:23:59.818Z,8.00
2023-04-09T07:24:59.819Z,7.00
2023-04-09T07:25:59.743Z,8.90
2023-04-09T07:26:59.747Z,8.80
2023-04-09T07:27:59.794Z,8.90
2023-04-09T07:28:59.708Z,8.40
2023-04-09T07:29:59.725Z,8.70
2023-04-09T07:30:59.698Z,9.40
2023-04-09T07:31:59.706Z,9.20
2023-04-09T07:32:59.700Z,9.00
2023-04-09T07:33:59.677Z,7.50
2023-04-09T07:34:59.676Z,8.70
2023-04-09T07:35:59.660Z,9.40
2023-04-09T07:36:59.621Z,8.50
2023-04-09T07:37:59.614Z,8.60
2023-04-09T07:38:59.631Z,8.80
2023-04-09T07:39:59.635Z,8.50
2023-04-09T07:40:59.588Z,7.10
2023-04-09T07:41:59.564Z,7.30
2023-04-09T07:42:59.555Z,9.80
2023-04-09T07:43:59.566Z,7.10
2023-04-09T07:44:59.552Z,7.10
2023-04-09T07:45:59.513Z,7.90
2023-04-09T07:46:59.556Z,7.20
2023-04-09T07:47:59.562Z,7.10
2023-04-09T07:48:59.488Z,7.10
2023-04-09T07:49:59.522Z,8.00
2023-04-09T07:50:59.466Z,8.70
2023-04-09T07:51:59.450Z,8.50
2023-04-09T07:52:59.465Z,9.50
2023-04-09T07:53:59.438Z,9.10
2023-04-09T07:54:59.433Z,7.60
2023-04-09T07:55:59.446Z,9.10
2023-04-09T07:56:59.446Z,9.40
2023-04-09T07:57:59.389Z,8.60
2023-04-09T07:58:59.441Z,8.60
2023-04-09T07:59:59.405Z,8.90
2023-04-09T08:00:59.412Z,9.80
2023-04-09T08:01:59.456Z,8.00
2023-04-09T08:02:59.446Z,8.70
2023-04-09T08:03:59.500Z,8.90
2023-04-09T08:04:59.484Z,6.20
2023-04-09T08:05:59.310Z,8.50
2023-04-09T08:06:59.309Z,9.00
2023-04-09T08:07:59.271Z,7.50
2023-04-09T08:08:59.266Z,9.60
2023-04-09T08:09:59.265Z,8.40
2023-04-09T08:10:59.268Z,8.10
2023-04-09T08:11:59.244Z,7.80
2023-04-09T08:12:59.268Z,6.80
2023-04-09T08:13:59.235Z,8.10
2023-04-09T08:14:59.228Z,9.20
2023-04-09T08:15:59.218Z,8.30
2023-04-09T08:16:59.192Z,7.90
2023-04-09T08:17:59.268Z,8.30
2023-04-09T08:18:59.174Z,8.10
2023-04-09T08:19:59.329Z,9.10
2023-04-09T08:20:59.192Z,9.00
2023-04-09T08:21:59.182Z,7.50
2023-04-09T08:22:59.177Z,9.10
2023-04-09T08:23:59.106Z,8.50
2023-04-09T08:25:00.264Z,7.60
2023-04-09T08:25:59.138Z,7.80
2023-04-09T08:26:59.078Z,6.80
2023-04-09T08:27:59.056Z,5.60
2023-04-09T08:28:59.054Z,6.10
2023-04-09T08:30:01.637Z,6.30
2023-04-09T08:31:02.379Z,6.80
2023-04-09T08:31:59.151Z,7.50
2023-04-09T08:33:01.892Z,7.40
2023-04-09T08:33:59.034Z,6.10
2023-04-09T08:34:59.040Z,9.30
2023-04-09T08:36:03.087Z,7.10
2023-04-09T08:37:01.587Z,7.60
2023-04-09T08:37:59.628Z,6.90
2023-04-09T08:39:01.603Z,7.50
2023-04-09T08:39:58.921Z,6.60
2023-04-09T08:40:58.977Z,7.80
2023-04-09T08:41:58.913Z,7.30
2023-04-09T08:42:58.914Z,6.70
2023-04-09T08:43:59.751Z,7.20
2023-04-09T08:44:58.910Z,6.60
2023-04-09T08:45:58.936Z,6.70
2023-04-09T08:46:59.693Z,8.20
2023-04-09T08:47:58.905Z,7.90
2023-04-09T08:48:58.854Z,8.80
2023-04-09T08:49:58.814Z,7.10
2023-04-09T08:50:58.833Z,9.00
2023-04-09T08:51:58.796Z,7.90
2023-04-09T08:52:58.778Z,7.50
2023-04-09T08:54:00.718Z,7.60
2023-04-09T08:54:58.808Z,8.00
2023-04-09T08:55:58.793Z,7.20
2023-04-09T08:56:58.770Z,8.80
2023-04-09T08:57:58.719Z,7.10
2023-04-09T08:58:58.932Z,7.70
2023-04-09T08:59:58.738Z,8.40
2023-04-09T09:00:58.756Z,7.50
2023-04-09T09:01:58.886Z,10.40
2023-04-09T09:02:58.816Z,10.50
2023-04-09T09:03:58.684Z,9.00
2023-04-09T09:04:58.654Z,8.10
2023-04-09T09:05:58.676Z,9.70
2023-04-09T09:06:58.621Z,9.00
2023-04-09T09:07:58.617Z,10.40
2023-04-09T09:08:58.629Z,10.00
2023-04-09T09:09:58.621Z,9.40
2023-04-09T09:10:58.614Z,9.40
2023-04-09T09:11:58.556Z,11.20
2023-04-09T09:12:58.559Z,10.60
2023-04-09T09:13:58.586Z,10.60
2023-04-09T09:14:58.822Z,9.20
2023-04-09T09:15:58.523Z,9.20
2023-04-09T09:16:58.638Z,11.90
2023-04-09T09:17:58.546Z,9.60
2023-04-09T09:18:58.654Z,11.80
2023-04-09T09:19:58.486Z,10.80
2023-04-09T09:20:58.474Z,9.40
2023-04-09T09:21:58.492Z,10.50
2023-04-09T09:22:58.436Z,9.80
2023-04-09T09:23:58.444Z,9.60
2023-04-09T09:24:58.421Z,10.40
2023-04-09T09:25:58.483Z,10.10
2023-04-09T09:26:58.436Z,10.20
2023-04-09T09:27:58.399Z,10.10
2023-04-09T09:28:58.374Z,9.60
2023-04-09T09:29:58.419Z,9.80
2023-04-09T09:30:58.377Z,11.80
2023-04-09T09:31:58.351Z,10.30
2023-04-09T09:32:58.370Z,11.20
2023-04-09T09:33:58.315Z,11.30
2023-04-09T09:34:58.363Z,10.20
2023-04-09T09:35:58.325Z,9.30
2023-04-09T09:36:58.376Z,9.40
2023-04-09T09:37:58.341Z,10.90
2023-04-09T09:38:58.263Z,9.70
2023-04-09T09:39:58.269Z,10.20
2023-04-09T09:40:58.289Z,11.00
2023-04-09T09:41:58.292Z,11.30
2023-04-09T09:42:58.238Z,10.30
2023-04-09T09:43:58.232Z,11.10
2023-04-09T09:44:58.208Z,9.50
2023-04-09T09:45:58.200Z,11.40
2023-04-09T09:46:58.204Z,11.10
2023-04-09T09:47:58.202Z,9.50
2023-04-09T09:48:58.188Z,10.20
2023-04-09T09:49:58.153Z,10.20
2023-04-09T09:50:58.144Z,10.70
2023-04-09T09:51:58.133Z,9.40
2023-04-09T09:52:58.127Z,10.70
2023-04-09T09:53:58.144Z,11.70
2023-04-09T09:54:58.122Z,11.00
2023-04-09T09:55:58.093Z,10.80
2023-04-09T09:56:58.123Z,10.70
2023-04-09T09:57:58.072Z,10.70
2023-04-09T09:58:58.072Z,10.60
2023-04-09T09:59:58.055Z,11.10
2023-04-09T10:00:58.111Z,9.80
2023-04-09T10:01:58.164Z,12.00
2023-04-09T10:02:58.101Z,12.30
2023-04-09T10:03:58.005Z,9.40
2023-04-09T10:04:57.975Z,10.60
2023-04-09T10:05:58.028Z,10.30
2023-04-09T10:06:58.171Z,10.70
2023-04-09T10:07:58.045Z,11.50
2023-04-09T10:08:57.976Z,11.30
2023-04-09T10:09:57.988Z,10.80
2023-04-09T10:10:57.938Z,10.40
2023-04-09T10:11:57.977Z,10.70
2023-04-09T10:12:57.960Z,15.80
2023-04-09T10:13:57.918Z,11.30
2023-04-09T10:14:57.941Z,9.60
2023-04-09T10:15:58.015Z,10.90
2023-04-09T10:16:57.868Z,10.90
2023-04-09T10:17:57.939Z,11.80
2023-04-09T10:18:57.846Z,10.90
2023-04-09T10:19:57.887Z,10.20
2023-04-09T10:20:57.800Z,12.50
2023-04-09T10:21:57.799Z,11.60
2023-04-09T10:22:57.808Z,11.00
2023-04-09T10:23:57.822Z,11.60
2023-04-09T10:24:57.764Z,10.20
2023-04-09T10:25:57.747Z,10.80
2023-04-09T10:26:57.789Z,11.70
2023-04-09T10:27:57.710Z,10.70
2023-04-09T10:28:57.733Z,12.20
2023-04-09T10:29:57.692Z,11.30
2023-04-09T10:30:57.782Z,11.60
2023-04-09T10:31:57.675Z,15.10
2023-04-09T10:32:57.716Z,11.40
2023-04-09T10:33:57.645Z,10.80
2023-04-09T10:34:57.639Z,11.80
2023-04-09T10:35:57.717Z,11.70
2023-04-09T10:36:57.658Z,10.40
2023-04-09T10:37:57.681Z,12.10
2023-04-09T10:38:57.606Z,13.10
2023-04-09T10:39:57.581Z,10.50
2023-04-09T10:40:57.635Z,11.70
2023-04-09T10:41:57.645Z,10.80
2023-04-09T10:42:57.578Z,11.80
2023-04-09T10:43:57.593Z,12.70
2023-04-09T10:44:57.578Z,13.80
2023-04-09T10:45:57.558Z,12.60
2023-04-09T10:46:57.576Z,12.30
2023-04-09T10:47:57.614Z,12.20
2023-04-09T10:48:57.549Z,13.40
2023-04-09T10:49:57.483Z,11.70
2023-04-09T10:50:57.455Z,11.50
2023-04-09T10:51:57.541Z,11.30
2023-04-09T10:52:57.444Z,11.50
2023-04-09T10:53:57.433Z,10.90
2023-04-09T10:54:57.421Z,13.40
2023-04-09T10:55:57.491Z,11.90
2023-04-09T10:56:57.437Z,11.20
2023-04-09T10:57:57.414Z,11.50
2023-04-09T10:58:57.398Z,13.10
2023-04-09T10:59:57.394Z,12.90
2023-04-09T11:00:57.390Z,10.20
2023-04-09T11:01:57.437Z,12.20
2023-04-09T11:02:57.473Z,11.70
2023-04-09T11:03:57.361Z,11.70
2023-04-09T11:04:57.410Z,12.40
2023-04-09T11:05:57.308Z,9.40
2023-04-09T11:06:57.283Z,10.80
2023-04-09T11:07:57.290Z,12.00
2023-04-09T11:08:57.298Z,10.90
2023-04-09T11:09:57.258Z,12.00
2023-04-09T11:10:57.281Z,10.10
2023-04-09T11:11:57.260Z,10.60
2023-04-09T11:12:57.236Z,11.00
2023-04-09T11:13:57.233Z,11.30
2023-04-09T11:14:57.185Z,10.00
2023-04-09T11:15:57.378Z,11.10
2023-04-09T11:16:57.275Z,9.80
2023-04-09T11:17:57.197Z,10.00
2023-04-09T11:18:57.136Z,9.70
2023-04-09T11:19:57.140Z,11.20
2023-04-09T11:20:57.155Z,9.50
2023-04-09T11:21:57.117Z,11.30
2023-04-09T11:22:57.344Z,9.90
2023-04-09T11:23:57.123Z,11.00
2023-04-09T11:24:57.080Z,10.40
2023-04-09T11:25:57.084Z,9.80
2023-04-09T11:26:57.062Z,10.80
2023-04-09T11:27:57.056Z,9.90
2023-04-09T11:28:57.069Z,9.90
2023-04-09T11:29:57.022Z,8.70
2023-04-09T11:30:57.011Z,8.40
2023-04-09T11:31:57.066Z,7.70
2023-04-09T11:32:57.031Z,13.20
2023-04-09T11:33:56.977Z,9.20
2023-04-09T11:34:56.968Z,7.70
2023-04-09T11:35:57.024Z,9.00
2023-04-09T11:36:56.946Z,9.50
2023-04-09T11:37:56.965Z,9.30
2023-04-09T11:38:56.959Z,9.80
2023-04-09T11:39:57.925Z,9.60
2023-04-09T11:40:56.908Z,9.30
2023-04-09T11:41:56.905Z,10.00
2023-04-09T11:42:56.904Z,9.70
2023-04-09T11:43:56.882Z,12.00
2023-04-09T11:44:56.852Z,9.30
2023-04-09T11:45:57.638Z,10.30
2023-04-09T11:46:56.878Z,8.70
2023-04-09T11:47:56.962Z,10.30
2023-04-09T11:48:56.832Z,10.50
2023-04-09T11:49:56.794Z,10.30
2023-04-09T11:50:56.791Z,12.60
2023-04-09T11:51:56.780Z,11.20
2023-04-09T11:52:56.797Z,10.10
2023-04-09T11:53:56.756Z,12.40
2023-04-09T11:54:56.799Z,9.60
2023-04-09T11:55:56.748Z,11.50
2023-04-09T11:56:56.726Z,9.80
2023-04-09T11:57:56.714Z,10.50
2023-04-09T11:58:56.692Z,10.50
2023-04-09T11:59:56.687Z,12.10
2023-04-09T12:00:56.712Z,10.30
2023-04-09T12:01:56.708Z,11.70
2023-04-09T12:02:56.947Z,11.70
2023-04-09T12:03:56.947Z,11.20
2023-04-09T12:04:56.777Z,12.00
2023-04-09T12:05:56.627Z,10.90
2023-04-09T12:06:56.608Z,10.00
2023-04-09T12:07:56.927Z,12.10
2023-04-09T12:08:56.574Z,10.50
2023-04-09T12:09:56.622Z,11.80
2023-04-09T12:10:56.581Z,10.50
2023-04-09T12:11:56.578Z,12.80
2023-04-09T12:12:56.548Z,12.60
2023-04-09T12:13:56.555Z,11.00
2023-04-09T12:14:56.871Z,12.40
2023-04-09T12:15:58.739Z,12.50
2023-04-09T12:16:56.632Z,12.40
2023-04-09T12:17:56.522Z,13.30
2023-04-09T12:18:56.495Z,12.50
2023-04-09T12:19:56.465Z,12.20
2023-04-09T12:20:56.451Z,14.40
2023-04-09T12:23:09.159Z,11.80
2023-04-09T12:24:09.169Z,12.60
2023-04-09T12:25:09.073Z,10.80
2023-04-09T12:26:09.065Z,11.40
2023-04-09T12:27:09.303Z,10.50
2023-04-09T12:28:09.056Z,10.50
2023-04-09T12:29:09.035Z,11.50
2023-04-09T12:30:09.055Z,12.10
2023-04-09T12:31:09.023Z,11.80
2023-04-09T12:32:09.181Z,10.90
2023-04-09T12:33:10.995Z,12.90
2023-04-09T12:34:09.246Z,12.20
2023-04-09T12:35:08.994Z,9.80
2023-04-09T12:36:08.990Z,11.40
2023-04-09T12:37:09.212Z,12.80
2023-04-09T12:38:08.949Z,11.50
2023-04-09T12:39:08.941Z,10.00
2023-04-09T12:40:08.914Z,12.00
2023-04-09T12:41:08.917Z,9.90
2023-04-09T12:42:08.906Z,11.60
2023-04-09T12:43:08.933Z,11.10
2023-04-09T12:44:08.869Z,11.40
2023-04-09T12:45:08.857Z,12.70
2023-04-09T12:46:08.990Z,11.50
2023-04-09T12:47:08.842Z,11.50
2023-04-09T12:48:08.916Z,10.00
2023-04-09T12:49:08.819Z,10.60
2023-04-09T12:50:08.807Z,9.80
2023-04-09T12:51:08.822Z,10.50
2023-04-09T12:52:08.792Z,11.20
2023-04-09T12:53:08.803Z,11.60
2023-04-09T12:54:08.778Z,10.70
2023-04-09T12:55:08.747Z,11.10
2023-04-09T12:56:08.768Z,11.00
2023-04-09T12:57:08.728Z,10.10
2023-04-09T12:58:08.714Z,10.10
2023-04-09T12:59:08.715Z,11.50
2023-04-09T13:00:08.694Z,8.90
2023-04-09T13:01:08.765Z,11.80
2023-04-09T13:02:08.848Z,9.60
2023-04-09T13:03:08.777Z,11.10
2023-04-09T13:04:08.716Z,10.40
2023-04-09T13:05:08.642Z,10.60
2023-04-09T13:06:08.672Z,10.70
2023-04-09T13:07:08.625Z,11.90
2023-04-09T13:08:08.602Z,13.50
2023-04-09T13:09:08.618Z,10.50
2023-04-09T13:10:08.590Z,11.00
2023-04-09T13:11:08.584Z,11.80
2023-04-09T13:12:08.557Z,11.70
2023-04-09T13:13:08.566Z,11.30
2023-04-09T13:14:08.557Z,12.90
2023-04-09T13:15:08.561Z,11.30
2023-04-09T13:16:08.558Z,11.20
2023-04-09T13:17:08.570Z,11.70
2023-04-09T13:18:08.606Z,12.60
2023-04-09T13:19:08.503Z,11.00
2023-04-09T13:20:08.464Z,11.80
2023-04-09T13:21:08.471Z,10.80
2023-04-09T13:22:08.442Z,12.60
2023-04-09T13:23:08.449Z,13.20
2023-04-09T13:24:08.467Z,12.10
2023-04-09T13:25:08.419Z,12.70
2023-04-09T13:26:08.409Z,11.10
2023-04-09T13:27:08.405Z,11.90
2023-04-09T13:28:08.377Z,10.30
2023-04-09T13:29:08.399Z,12.40
2023-04-09T13:30:08.374Z,10.90
2023-04-09T13:31:08.466Z,11.10
2023-04-09T13:32:08.335Z,11.90
2023-04-09T13:33:08.394Z,10.00
2023-04-09T13:34:08.335Z,11.00
2023-04-09T13:35:08.329Z,11.50
2023-04-09T13:36:08.310Z,10.50
2023-04-09T13:37:08.285Z,11.20
2023-04-09T13:38:08.293Z,11.00
2023-04-09T13:39:08.303Z,12.30
2023-04-09T13:40:08.241Z,11.70
2023-04-09T13:41:08.252Z,12.90
2023-04-09T13:42:13.602Z,13.20
2023-04-09T13:43:08.218Z,10.90
2023-04-09T13:44:08.207Z,12.70
2023-04-09T13:45:08.245Z,12.60
2023-04-09T13:46:08.285Z,12.10
2023-04-09T13:47:16.602Z,10.00
2023-04-09T13:48:08.247Z,12.00
2023-04-09T13:49:08.168Z,11.10
2023-04-09T13:50:08.179Z,10.90
2023-04-09T13:51:08.121Z,10.70
2023-04-09T13:52:08.120Z,11.60
2023-04-09T13:53:08.143Z,11.20
2023-04-09T13:54:08.100Z,9.70
2023-04-09T13:55:08.099Z,11.40
2023-04-09T13:56:08.098Z,10.30
2023-04-09T13:57:08.137Z,11.10
2023-04-09T13:58:08.054Z,10.80
2023-04-09T13:59:08.035Z,9.90
2023-04-09T14:00:08.064Z,9.60
2023-04-09T14:01:08.222Z,9.50
2023-04-09T14:02:08.078Z,11.30
2023-04-09T14:03:08.205Z,10.10
2023-04-09T14:04:08.065Z,11.90
2023-04-09T14:05:08.012Z,9.80
2023-04-09T14:06:08.012Z,10.00
2023-04-09T14:07:07.967Z,9.60
2023-04-09T14:08:07.932Z,7.90
2023-04-09T14:09:07.992Z,10.40
2023-04-09T14:10:07.941Z,9.90
2023-04-09T14:11:07.936Z,10.00
2023-04-09T14:12:07.908Z,9.70
2023-04-09T14:13:07.905Z,10.40
2023-04-09T14:14:07.906Z,12.10
2023-04-09T14:15:07.893Z,10.60
2023-04-09T14:16:07.925Z,9.10
2023-04-09T14:17:07.848Z,9.40
2023-04-09T14:18:07.914Z,9.50
2023-04-09T14:19:08.689Z,9.20
2023-04-09T14:20:07.802Z,8.70
2023-04-09T14:21:09.970Z,10.30
2023-04-09T14:22:07.820Z,8.40
2023-04-09T14:23:07.810Z,10.20
2023-04-09T14:24:07.777Z,8.20
2023-04-09T14:25:07.757Z,9.20
2023-04-09T14:26:07.739Z,7.50
2023-04-09T14:27:07.767Z,8.10
2023-04-09T14:28:07.747Z,8.00
2023-04-09T14:29:07.714Z,8.70
2023-04-09T14:30:07.743Z,7.40
2023-04-09T14:31:07.777Z,8.00
2023-04-09T14:32:07.705Z,6.80
2023-04-09T14:33:07.777Z,7.60
2023-04-09T14:34:07.664Z,7.40
2023-04-09T14:35:07.641Z,5.90
2023-04-09T14:36:07.685Z,6.80
2023-04-09T14:37:07.612Z,8.50
2023-04-09T14:38:07.602Z,6.60
2023-04-09T14:39:07.613Z,7.40
2023-04-09T14:40:07.577Z,8.60
2023-04-09T14:41:07.574Z,10.10
2023-04-09T14:42:07.581Z,10.30
2023-04-09T14:43:07.544Z,8.60
2023-04-09T14:44:07.571Z,10.40
2023-04-09T14:45:07.521Z,10.30
2023-04-09T14:46:07.526Z,10.20
2023-04-09T14:47:07.580Z,10.00
2023-04-09T14:48:07.507Z,10.70
2023-04-09T14:49:07.494Z,9.30
2023-04-09T14:50:07.474Z,9.50
2023-04-09T14:51:07.464Z,9.40
2023-04-09T14:52:07.460Z,10.20
2023-04-09T14:53:07.441Z,10.40
2023-04-09T14:54:07.429Z,10.00
2023-04-09T14:55:07.452Z,10.80
2023-04-09T14:56:07.415Z,10.60
2023-04-09T14:57:07.405Z,11.00
2023-04-09T14:58:07.413Z,10.40
2023-04-09T14:59:07.463Z,8.90
2023-04-09T15:00:07.403Z,9.40
2023-04-09T15:01:07.354Z,9.90
2023-04-09T15:02:07.477Z,9.60
2023-04-09T15:03:07.449Z,10.30
2023-04-09T15:04:07.393Z,11.10
2023-04-09T15:05:07.347Z,9.20
2023-04-09T15:06:07.307Z,9.10
2023-04-09T15:07:07.284Z,9.50
2023-04-09T15:08:07.295Z,10.00
2023-04-09T15:09:07.285Z,9.80
2023-04-09T15:10:07.279Z,9.50
2023-04-09T15:11:07.271Z,9.00
2023-04-09T15:12:07.239Z,10.10
2023-04-09T15:13:07.259Z,7.60
2023-04-09T15:14:07.221Z,8.50
2023-04-09T15:15:07.215Z,9.00
2023-04-09T15:16:07.225Z,8.60
2023-04-09T15:17:07.169Z,9.70
2023-04-09T15:18:07.172Z,8.50
2023-04-09T15:19:07.158Z,10.00
2023-04-09T15:20:07.188Z,9.90
2023-04-09T15:21:07.140Z,9.80
2023-04-09T15:22:07.130Z,10.10
2023-04-09T15:23:07.127Z,9.10
2023-04-09T15:24:07.121Z,9.70
2023-04-09T15:25:07.113Z,9.50
2023-04-09T15:26:07.102Z,10.70
2023-04-09T15:27:07.082Z,9.30
2023-04-09T15:28:07.064Z,9.80
2023-04-09T15:29:07.042Z,8.10
2023-04-09T15:30:07.054Z,7.40
2023-04-09T15:31:07.032Z,6.50
2023-04-09T15:32:07.213Z,8.80
2023-04-09T15:33:07.069Z,7.30
2023-04-09T15:34:07.000Z,7.50
2023-04-09T15:35:06.983Z,6.90
2023-04-09T15:36:06.987Z,8.30
2023-04-09T15:37:06.963Z,7.40
2023-04-09T15:38:06.948Z,7.30
2023-04-09T15:39:06.934Z,9.50
2023-04-09T15:40:06.932Z,8.30
2023-04-09T15:41:06.906Z,7.70
2023-04-09T15:42:09.465Z,7.20
2023-04-09T15:43:06.893Z,7.40
2023-04-09T15:44:06.874Z,7.80
2023-04-09T15:45:06.871Z,8.50
2023-04-09T15:46:06.903Z,7.40
2023-04-09T15:47:06.858Z,9.70
2023-04-09T15:48:06.885Z,7.60
2023-04-09T15:49:06.864Z,8.40
2023-04-09T15:50:06.808Z,6.90
2023-04-09T15:51:06.802Z,9.30
2023-04-09T15:52:06.783Z,8.50
2023-04-09T15:53:06.780Z,7.80
2023-04-09T15:54:06.767Z,8.70
2023-04-09T15:55:06.747Z,7.20
2023-04-09T15:56:06.755Z,7.60
2023-04-09T15:57:06.744Z,8.60
2023-04-09T15:58:06.736Z,8.00
2023-04-09T15:59:06.748Z,8.10
2023-04-09T16:00:06.737Z,8.20
2023-04-09T16:01:06.784Z,7.30
2023-04-09T16:02:06.715Z,7.00
2023-04-09T16:03:06.708Z,7.40
2023-04-09T16:04:06.682Z,7.80
2023-04-09T16:05:06.642Z,7.70
2023-04-09T16:06:06.643Z,7.30
2023-04-09T16:07:06.626Z,7.00
2023-04-09T16:08:06.619Z,7.70
2023-04-09T16:09:06.604Z,8.10
2023-04-09T16:10:06.591Z,6.10
2023-04-09T16:11:06.626Z,6.50
2023-04-09T16:12:06.576Z,6.90
2023-04-09T16:13:06.556Z,5.80
2023-04-09T16:14:06.552Z,6.20
2023-04-09T16:15:06.547Z,6.20
2023-04-09T16:16:06.565Z,6.90
2023-04-09T16:17:06.561Z,7.20
2023-04-09T16:18:06.569Z,8.30
2023-04-09T16:19:06.524Z,8.40
2023-04-09T16:20:06.490Z,7.70
2023-04-09T16:21:06.491Z,6.10
2023-04-09T16:22:06.548Z,8.00
2023-04-09T16:23:06.441Z,7.30
2023-04-09T16:24:06.443Z,8.40
2023-04-09T16:25:06.437Z,8.20
2023-04-09T16:26:06.433Z,7.60
2023-04-09T16:27:06.427Z,6.70
2023-04-09T16:28:06.387Z,7.10
2023-04-09T16:29:06.388Z,7.50
2023-04-09T16:30:06.405Z,6.60
2023-04-09T16:31:06.444Z,6.20
2023-04-09T16:32:06.469Z,7.20
2023-04-09T16:33:06.345Z,8.20
2023-04-09T16:34:06.350Z,8.70
2023-04-09T16:35:06.353Z,8.70
2023-04-09T16:36:06.371Z,7.90
2023-04-09T16:37:06.293Z,7.10
2023-04-09T16:38:06.292Z,10.50
2023-04-09T16:39:06.271Z,7.10
2023-04-09T16:40:06.255Z,6.50
2023-04-09T16:41:06.264Z,7.70
2023-04-09T16:42:06.262Z,6.90
2023-04-09T16:43:06.235Z,8.20
2023-04-09T16:44:06.290Z,6.70
2023-04-09T16:45:06.199Z,9.40
2023-04-09T16:46:06.276Z,6.80
2023-04-09T16:47:06.186Z,6.90
2023-04-09T16:48:06.311Z,8.00
2023-04-09T16:49:06.154Z,8.90
2023-04-09T16:50:06.155Z,7.30
2023-04-09T16:51:06.142Z,7.40
2023-04-09T16:52:06.146Z,8.10
2023-04-09T16:53:06.108Z,8.30
2023-04-09T16:54:06.112Z,7.60
2023-04-09T16:55:06.088Z,7.40
2023-04-09T16:56:06.089Z,7.40
2023-04-09T16:57:06.083Z,7.00
2023-04-09T16:58:06.088Z,6.60
2023-04-09T16:59:06.195Z,8.90
2023-04-09T17:00:06.128Z,7.60
2023-04-09T17:01:06.095Z,7.90
2023-04-09T17:02:06.210Z,6.40
2023-04-09T17:03:06.103Z,8.00
2023-04-09T17:04:06.037Z,8.00
2023-04-09T17:05:05.979Z,8.10
2023-04-09T17:06:05.981Z,8.00
2023-04-09T17:07:05.963Z,8.10
2023-04-09T17:08:05.950Z,7.10
2023-04-09T17:09:05.924Z,7.70
2023-04-09T17:10:05.936Z,9.80
2023-04-09T17:11:05.926Z,8.40
2023-04-09T17:12:05.964Z,8.50
2023-04-09T17:13:05.902Z,7.50
2023-04-09T17:14:05.892Z,6.00
2023-04-09T17:15:05.977Z,6.70
2023-04-09T17:16:05.900Z,7.20
2023-04-09T17:17:05.915Z,7.40
2023-04-09T17:18:05.899Z,7.30
2023-04-09T17:19:05.841Z,7.00
2023-04-09T17:20:05.836Z,7.90
2023-04-09T17:21:05.805Z,8.40
2023-04-09T17:22:05.841Z,6.40
2023-04-09T17:23:05.770Z,7.60
2023-04-09T17:24:05.816Z,6.90
2023-04-09T17:25:06.566Z,6.80
2023-04-09T17:26:05.749Z,7.10
2023-04-09T17:27:05.746Z,7.20
2023-04-09T17:28:05.738Z,6.60
2023-04-09T17:29:05.736Z,5.50
2023-04-09T17:30:05.724Z,6.60
2023-04-09T17:31:05.788Z,6.00
2023-04-09T17:32:05.787Z,7.60
2023-04-09T17:33:05.695Z,6.40
2023-04-09T17:34:05.686Z,6.10
2023-04-09T17:35:05.661Z,6.00
2023-04-09T17:36:05.698Z,6.10
2023-04-09T17:37:05.679Z,6.50
2023-04-09T17:38:05.622Z,6.80
2023-04-09T17:39:05.625Z,5.90
2023-04-09T17:40:05.629Z,5.30
2023-04-09T17:41:07.056Z,6.10
2023-04-09T17:42:05.629Z,7.60
2023-04-09T17:43:05.637Z,5.00
2023-04-09T17:44:05.550Z,6.00
2023-04-09T17:45:05.572Z,7.00
2023-04-09T17:46:05.614Z,6.20
2023-04-09T17:47:05.517Z,6.20
2023-04-09T17:48:06.187Z,5.80
2023-04-09T17:49:05.488Z,6.00
2023-04-09T17:50:05.539Z,5.80
2023-04-09T17:51:05.714Z,6.50
2023-04-09T17:52:05.490Z,5.40
2023-04-09T17:53:05.479Z,6.00
2023-04-09T17:54:05.455Z,6.20
2023-04-09T17:55:05.431Z,5.70
2023-04-09T17:56:05.465Z,7.90
2023-04-09T17:57:05.434Z,5.60
2023-04-09T17:58:05.407Z,6.50
2023-04-09T17:59:05.408Z,7.10
2023-04-09T18:00:05.394Z,6.20
2023-04-09T18:01:05.475Z,5.60
2023-04-09T18:02:05.625Z,5.20
2023-04-09T18:03:05.520Z,5.40
2023-04-09T18:04:05.501Z,5.70
2023-04-09T18:05:05.514Z,6.10
2023-04-09T18:06:05.341Z,7.10
2023-04-09T18:07:05.365Z,6.00
2023-04-09T18:08:05.321Z,5.20
2023-04-09T18:09:05.265Z,6.00
2023-04-09T18:10:05.291Z,7.20
2023-04-09T18:11:12.681Z,5.30
2023-04-09T18:12:05.261Z,5.80
2023-04-09T18:13:05.220Z,6.90
2023-04-09T18:14:05.220Z,6.10
2023-04-09T18:15:05.197Z,5.60
2023-04-09T18:16:05.292Z,5.90
2023-04-09T18:17:05.201Z,6.00
2023-04-09T18:18:05.220Z,7.70
2023-04-09T18:19:05.185Z,7.50
2023-04-09T18:20:05.150Z,7.10
2023-04-09T18:21:05.136Z,6.00
2023-04-09T18:22:05.144Z,6.20
2023-04-09T18:23:05.131Z,6.50
2023-04-09T18:24:05.118Z,5.90
2023-04-09T18:25:05.085Z,7.40
2023-04-09T18:26:05.102Z,8.20
2023-04-09T18:27:05.077Z,7.10
2023-04-09T18:28:05.060Z,8.30
2023-04-09T18:29:05.058Z,6.70
2023-04-09T18:30:05.139Z,8.10
2023-04-09T18:31:05.144Z,8.90
2023-04-09T18:32:05.039Z,8.00
2023-04-09T18:33:05.045Z,7.50
2023-04-09T18:34:05.027Z,8.90
2023-04-09T18:35:04.994Z,10.00
2023-04-09T18:36:05.023Z,10.70
2023-04-09T18:37:04.978Z,9.20
2023-04-09T18:38:04.956Z,9.50
2023-04-09T18:39:04.989Z,10.60
2023-04-09T18:40:05.006Z,8.00
2023-04-09T18:41:04.920Z,7.80
2023-04-09T18:42:04.922Z,9.40
2023-04-09T18:43:04.900Z,7.30
2023-04-09T18:44:04.885Z,7.70
2023-04-09T18:45:05.198Z,10.80
2023-04-09T18:46:04.918Z,6.70
2023-04-09T18:47:04.862Z,10.90
2023-04-09T18:48:04.903Z,10.60
2023-04-09T18:49:04.829Z,11.30
2023-04-09T18:50:04.825Z,9.50
2023-04-09T18:51:04.817Z,10.70
2023-04-09T18:52:04.801Z,8.40
2023-04-09T18:53:04.815Z,8.20
2023-04-09T18:54:04.805Z,9.10
2023-04-09T18:55:04.761Z,8.90
2023-04-09T18:56:04.761Z,8.80
2023-04-09T18:57:04.757Z,10.10
2023-04-09T18:58:04.754Z,10.10
2023-04-09T18:59:04.722Z,8.00
2023-04-09T19:00:04.729Z,8.80
2023-04-09T19:01:04.735Z,8.00
2023-04-09T19:02:05.145Z,8.90
2023-04-09T19:03:04.858Z,7.60
2023-04-09T19:04:04.735Z,7.70
2023-04-09T19:05:04.698Z,8.40
2023-04-09T19:06:04.657Z,8.20
2023-04-09T19:07:04.687Z,9.70
2023-04-09T19:08:04.625Z,10.20
2023-04-09T19:09:04.634Z,9.60
2023-04-09T19:10:04.601Z,9.80
2023-04-09T19:11:04.614Z,12.10
2023-04-09T19:12:04.590Z,11.20
2023-04-09T19:13:04.579Z,11.90
2023-04-09T19:14:04.560Z,10.00
2023-04-09T19:15:04.569Z,14.00
2023-04-09T19:16:04.614Z,11.30
2023-04-09T19:17:04.521Z,13.20
2023-04-09T19:18:04.576Z,9.80
2023-04-09T19:19:04.532Z,12.10
2023-04-09T19:20:04.509Z,12.90
2023-04-09T19:21:04.486Z,12.10
2023-04-09T19:22:04.503Z,9.40
2023-04-09T19:23:04.462Z,10.80
2023-04-09T19:24:05.994Z,9.80
2023-04-09T19:25:04.430Z,9.30
2023-04-09T19:26:04.421Z,9.90
2023-04-09T19:27:04.473Z,8.40
2023-04-09T19:28:04.430Z,12.70
2023-04-09T19:29:04.407Z,13.80
2023-04-09T19:30:04.386Z,10.60
2023-04-09T19:31:04.429Z,11.90
2023-04-09T19:32:04.389Z,10.90
2023-04-09T19:33:04.431Z,10.20
2023-04-09T19:34:04.335Z,11.20
2023-04-09T19:35:04.321Z,12.50
2023-04-09T19:36:04.368Z,12.30
2023-04-09T19:37:04.307Z,11.20
2023-04-09T19:38:05.210Z,11.70
2023-04-09T19:39:04.278Z,9.60
2023-04-09T19:40:04.297Z,10.40
2023-04-09T19:41:04.258Z,10.40
2023-04-09T19:42:04.262Z,9.10
2023-04-09T19:43:04.244Z,8.30
2023-04-09T19:44:04.225Z,9.10
2023-04-09T19:45:04.226Z,9.10